Time;durP1;ratioP1;P1;durP2;ratioP2;P2;SDS_P1;SDS_P2;PMS_P1;PMS_P2;Temp;Humidity;BMP_temperature;BMP_pressure;BME280_temperature;BME280_humidity;BME280_pressure;Samples;Min_cycle;Max_cycle;Signal;HPM_P1;HPM_P2
2021/04/21 00:00:33;;;;;;;12.63;11.32;;;;;;;30.54;59.50;100900.78;5030598;28;70479;-35
2021/04/21 00:03:04;;;;;;;20.17;11.77;;;;;;;30.49;61.00;100906.03;5027715;28;66377;-34
2021/04/21 00:05:37;;;;;;;20.75;13.40;;;;;;;30.42;61.50;100894.41;5007122;28;70545;-34
2021/04/21 00:08:08;;;;;;;17.25;13.85;;;;;;;30.54;62.91;100917.03;5019622;28;66604;-34
2021/04/21 00:10:42;;;;;;;22.13;14.73;;;;;;;30.55;64.11;100923.28;5028543;28;69979;-35
2021/04/21 00:13:12;;;;;;;31.20;15.90;;;;;;;30.53;64.62;100928.06;5021632;28;65846;-34
2021/04/21 00:15:42;;;;;;;25.50;16.80;;;;;;;30.56;64.50;100931.16;5022195;28;70509;-35
2021/04/21 00:18:15;;;;;;;26.98;17.27;;;;;;;30.61;63.91;100930.53;5019149;28;67306;-35
2021/04/21 00:20:51;;;;;;;28.05;16.30;;;;;;;30.55;64.99;100924.09;5017537;28;70016;-36
2021/04/21 00:23:22;;;;;;;26.17;16.80;;;;;;;30.61;64.07;100944.88;5033081;28;64841;-35
2021/04/21 00:26:02;;;;;;;24.63;16.08;;;;;;;30.62;64.81;100943.84;5029971;28;70021;-35
2021/04/21 00:28:35;;;;;;;24.23;14.90;;;;;;;30.55;64.76;100934.94;5024645;28;66012;-36
2021/04/21 00:31:14;;;;;;;24.02;15.32;;;;;;;30.69;63.76;100946.50;5025320;28;69948;-35
2021/04/21 00:33:45;;;;;;;18.30;14.32;;;;;;;30.72;63.87;100949.59;5028001;28;65084;-36
2021/04/21 00:36:17;;;;;;;16.20;13.40;;;;;;;30.67;64.46;100956.72;5020255;28;70239;-34
2021/04/21 00:38:51;;;;;;;18.55;11.95;;;;;;;30.67;63.84;100949.44;5020393;28;65723;-35
2021/04/21 00:41:21;;;;;;;17.38;12.20;;;;;;;30.75;63.66;100974.59;5036227;28;69798;-34
2021/04/21 00:43:57;;;;;;;14.10;12.73;;;;;;;30.76;64.46;100981.66;5014003;28;66505;-34
2021/04/21 00:46:39;;;;;;;16.23;13.00;;;;;;;30.63;64.73;100974.47;5018619;28;69831;-35
2021/04/21 00:49:11;;;;;;;18.55;12.68;;;;;;;30.77;64.26;100994.19;5020746;28;65920;-34
2021/04/21 00:51:53;;;;;;;19.60;13.00;;;;;;;30.71;65.10;100999.41;5017044;28;69197;-35
2021/04/21 00:54:41;;;;;;;29.70;11.95;;;;;;;30.78;65.31;101001.25;5012600;28;65266;-34
2021/04/21 00:57:29;;;;;;;22.00;12.63;;;;;;;30.65;66.45;100981.31;5020676;28;69120;-34
2021/04/21 01:00:17;;;;;;;27.15;13.65;;;;;;;30.84;66.31;100994.97;5031100;28;65390;-34
2021/04/21 01:03:15;;;;;;;20.75;14.30;;;;;;;30.91;66.26;100985.78;5018690;28;69213;-35
2021/04/21 01:05:58;;;;;;;19.13;14.85;;;;;;;30.89;65.76;100987.88;5017549;28;66178;-35
2021/04/21 01:08:55;;;;;;;25.08;13.25;;;;;;;30.92;65.89;100987.47;5020815;28;69803;-35
2021/04/21 01:11:33;;;;;;;25.95;13.93;;;;;;;30.83;66.09;100974.38;5020537;28;66376;-35
2021/04/21 01:14:09;;;;;;;27.27;16.02;;;;;;;30.89;66.41;100976.22;5026870;28;70026;-34
2021/04/21 01:16:45;;;;;;;33.28;15.15;;;;;;;30.99;65.89;100992.81;5019236;28;66729;-35
2021/04/21 01:19:44;;;;;;;16.80;13.52;;;;;;;30.97;66.16;100991.38;5018570;28;70290;-34
2021/04/21 01:22:42;;;;;;;25.85;14.07;;;;;;;31.02;66.08;100997.78;5029414;28;66233;-36
2021/04/21 01:25:44;;;;;;;21.30;13.10;;;;;;;30.84;66.29;100973.31;5025911;28;71116;-34
2021/04/21 01:28:20;;;;;;;18.02;11.45;;;;;;;30.95;65.72;100986.16;5023130;28;65244;-35
2021/04/21 01:30:50;;;;;;;16.20;10.43;;;;;;;31.07;65.45;100995.28;5020737;28;69877;-35
2021/04/21 01:33:23;;;;;;;12.18;9.98;;;;;;;31.03;65.43;100999.44;5023349;28;66197;-36
2021/04/21 01:36:01;;;;;;;26.80;10.10;;;;;;;31.04;65.75;101006.53;5022174;28;69792;-35
2021/04/21 01:38:32;;;;;;;18.38;10.30;;;;;;;31.11;65.18;101009.19;5023126;28;65912;-36
2021/04/21 01:41:05;;;;;;;15.00;9.55;;;;;;;31.16;65.41;101006.66;5023563;28;68929;-35
2021/04/21 01:43:56;;;;;;;18.70;10.15;;;;;;;31.19;65.29;101014.34;5020987;28;65131;-37
2021/04/21 01:46:32;;;;;;;29.92;11.73;;;;;;;31.24;64.81;101024.53;5020904;28;69445;-36
2021/04/21 01:49:19;;;;;;;31.48;12.30;;;;;;;31.30;65.69;101026.38;5025322;28;65869;-37
2021/04/21 01:52:01;;;;;;;20.88;11.23;;;;;;;31.35;65.65;101023.84;5019421;28;70707;-38
2021/04/21 01:54:33;;;;;;;15.45;11.20;;;;;;;31.34;65.05;101009.47;5030079;28;66016;-35
2021/04/21 01:57:11;;;;;;;13.68;10.63;;;;;;;31.41;65.16;101022.97;5021999;28;70218;-37
2021/04/21 01:59:49;;;;;;;21.35;10.00;;;;;;;31.44;65.21;101022.53;5030346;28;66442;-37
2021/04/21 02:02:30;;;;;;;25.77;9.90;;;;;;;31.43;64.54;101030.91;5020834;28;69176;-36
2021/04/21 02:05:23;;;;;;;12.75;9.07;;;;;;;31.52;65.12;101043.94;5017449;28;66475;-37
2021/04/21 02:07:55;;;;;;;9.80;8.20;;;;;;;31.56;64.34;101047.88;5021303;28;70567;-37
2021/04/21 02:10:52;;;;;;;14.40;8.57;;;;;;;31.54;64.30;101038.31;5021291;28;66042;-37
2021/04/21 02:13:31;;;;;;;12.07;8.65;;;;;;;31.57;64.26;101038.69;5025350;28;68899;-36
2021/04/21 02:16:22;;;;;;;10.85;8.80;;;;;;;31.58;64.12;101051.19;5035713;28;65517;-36
2021/04/21 02:19:02;;;;;;;13.70;8.10;;;;;;;31.59;63.87;101041.19;5030401;28;69686;-39
2021/04/21 02:21:46;;;;;;;12.10;8.27;;;;;;;31.52;63.98;101038.53;5034955;28;65761;-35
2021/04/21 02:24:56;;;;;;;10.90;7.50;;;;;;;31.57;63.80;101048.72;5038263;28;69300;-37
2021/04/21 02:27:56;;;;;;;13.88;8.18;;;;;;;31.66;63.90;101052.00;5019601;28;66483;-37
2021/04/21 02:31:10;;;;;;;11.43;7.88;;;;;;;31.64;63.29;101038.63;5019650;28;69283;-37
2021/04/21 02:33:51;;;;;;;9.93;7.65;;;;;;;31.66;63.47;101041.13;5028396;28;65057;-42
2021/04/21 02:36:41;;;;;;;13.13;7.73;;;;;;;31.68;63.36;101034.44;5023054;28;69730;-36
2021/04/21 02:40:06;;;;;;;11.07;7.80;;;;;;;31.66;63.89;101035.72;5019651;28;65421;-37
2021/04/21 02:42:48;;;;;;;12.95;7.70;;;;;;;31.77;63.07;101038.53;5003941;28;69139;-36
2021/04/21 02:45:20;;;;;;;10.73;7.80;;;;;;;31.79;62.72;101035.59;5026693;28;66844;-36
2021/04/21 02:47:59;;;;;;;;;;;;;;;31.76;63.27;101036.03;5034650;28;69183;-40
2021/04/21 02:50:36;;;;;;;8.32;7.40;;;;;;;31.80;62.41;101023.69;5034991;28;65548;-37
2021/04/21 02:53:31;;;;;;;7.63;6.90;;;;;;;31.84;62.97;101038.44;5021031;28;69034;-37
2021/04/21 02:56:22;;;;;;;7.82;7.10;;;;;;;31.80;62.57;101037.25;5021841;28;66101;-37
2021/04/21 02:59:18;;;;;;;9.98;6.68;;;;;;;31.84;62.35;101043.88;5023817;28;69919;-37
2021/04/21 03:02:10;;;;;;;11.32;7.30;;;;;;;31.81;62.76;101033.47;5033601;28;66026;-36
2021/04/21 03:04:49;;;;;;;13.43;8.07;;;;;;;31.87;62.31;101016.28;5031033;28;69390;-37
2021/04/21 03:07:37;;;;;;;10.23;7.60;;;;;;;31.90;62.20;101032.16;5028942;28;66256;-36
2021/04/21 03:10:11;;;;;;;10.68;7.20;;;;;;;31.94;62.36;101022.53;5027002;28;69851;-37
2021/04/21 03:12:54;;;;;;;10.88;7.68;;;;;;;31.90;62.27;101004.16;5025850;28;65008;-37
2021/04/21 03:15:27;;;;;;;13.65;7.55;;;;;;;31.99;62.40;101016.44;5026914;28;69951;-36
2021/04/21 03:17:59;;;;;;;11.35;7.40;;;;;;;31.92;62.32;101005.63;5032913;28;65966;-36
2021/04/21 03:20:31;;;;;;;13.85;6.93;;;;;;;31.95;62.23;101002.47;5023935;28;69283;-36
2021/04/21 03:23:05;;;;;;;18.85;7.05;;;;;;;32.01;62.85;101019.75;5017353;28;66590;-37
2021/04/21 03:25:38;;;;;;;16.55;7.97;;;;;;;31.93;62.66;101001.03;5029247;28;70827;-36
2021/04/21 03:28:12;;;;;;;11.85;7.28;;;;;;;31.95;62.98;100996.22;5023213;28;66680;-37
2021/04/21 03:30:51;;;;;;;15.10;7.38;;;;;;;32.09;63.18;101013.19;5027827;28;70157;-36
2021/04/21 03:33:34;;;;;;;9.65;7.20;;;;;;;31.90;63.77;100983.31;5020466;28;65310;-36
2021/04/21 03:36:05;;;;;;;14.07;7.28;;;;;;;32.12;63.69;101001.88;5028413;28;70236;-36
2021/04/21 03:38:35;;;;;;;12.60;7.75;;;;;;;32.18;63.98;100999.13;5023377;28;65933;-33
2021/04/21 03:41:06;;;;;;;12.57;7.88;;;;;;;32.18;63.54;100984.69;5022639;28;69085;-30
2021/04/21 03:43:36;;;;;;;8.68;7.45;;;;;;;32.21;63.44;100985.09;5001986;28;66327;-30
2021/04/21 03:46:08;;;;;;;15.93;8.32;;;;;;;32.22;63.51;100975.88;5016099;28;69667;-29
2021/04/21 03:48:39;;;;;;;16.67;8.73;;;;;;;32.19;63.89;100961.94;5025487;28;66297;-30
2021/04/21 03:51:12;;;;;;;19.20;8.88;;;;;;;32.29;63.52;100973.09;5029780;27;69533;-31
2021/04/21 03:53:43;;;;;;;16.42;9.90;;;;;;;32.25;62.98;100970.00;5025993;28;65787;-29
2021/04/21 03:56:24;;;;;;;15.93;11.00;;;;;;;32.22;63.05;100956.06;5021110;28;69878;-29
2021/04/21 03:58:55;;;;;;;18.42;10.38;;;;;;;32.42;62.83;100980.22;5030857;28;66146;-30
2021/04/21 04:01:26;;;;;;;;;;;;;;;32.46;62.76;100967.91;5022056;28;70650;-30
2021/04/21 04:04:02;;;;;;;20.92;14.60;;;;;;;32.53;62.74;100971.34;5030633;28;65459;-30
2021/04/21 04:06:38;;;;;;;20.63;12.35;;;;;;;32.56;62.41;100965.44;5020886;28;70528;-31
2021/04/21 04:09:10;;;;;;;21.92;13.10;;;;;;;32.59;62.56;100959.56;5024449;28;66130;-30
2021/04/21 04:11:47;;;;;;;;;;;;;;;32.48;62.33;100957.63;5022913;28;69979;-30
2021/04/21 04:14:29;;;;;;;15.00;11.65;;;;;;;32.58;62.06;100957.09;5025512;28;66035;-29
2021/04/21 04:17:00;;;;;;;20.88;12.65;;;;;;;32.61;62.13;100951.19;5022700;28;70306;-31
2021/04/21 04:19:41;;;;;;;21.35;12.70;;;;;;;32.41;60.94;100935.97;5018291;28;66290;-31
2021/04/21 04:22:17;;;;;;;15.60;12.07;;;;;;;32.37;60.57;100940.19;5025412;28;69062;-31
2021/04/21 04:24:52;;;;;;;22.23;11.95;;;;;;;32.21;59.46;100924.56;5025322;28;67019;-31
2021/04/21 04:27:28;;;;;;;13.00;11.55;;;;;;;32.23;59.18;100938.69;5026569;28;70680;-31
2021/04/21 04:30:00;;;;;;;18.90;11.80;;;;;;;32.21;58.65;100940.84;5024735;28;66376;-31
2021/04/21 04:32:40;;;;;;;20.20;12.35;;;;;;;31.98;57.64;100914.38;5023564;28;69925;-31
2021/04/21 04:35:11;;;;;;;19.55;12.73;;;;;;;32.05;58.30;100926.81;5023308;28;65442;-31
2021/04/21 04:37:42;;;;;;;19.37;12.43;;;;;;;32.00;57.47;100923.94;5027620;28;69535;-30
2021/04/21 04:40:16;;;;;;;18.10;12.60;;;;;;;31.96;55.54;100928.19;5023244;28;65727;-31
2021/04/21 04:42:48;;;;;;;20.50;12.20;;;;;;;31.82;55.45;100911.19;5016957;28;69994;-30
2021/04/21 04:45:20;;;;;;;16.48;10.90;;;;;;;31.81;54.53;100914.13;5019175;28;66170;-31
2021/04/21 04:48:04;;;;;;;18.17;11.68;;;;;;;31.58;53.52;100901.25;5026271;28;69672;-30
2021/04/21 04:50:41;;;;;;;16.00;10.95;;;;;;;31.67;54.37;100901.78;5028439;28;66033;-32
2021/04/21 04:53:16;;;;;;;13.20;10.80;;;;;;;31.68;54.24;100898.00;5029457;28;70800;-31
2021/04/21 04:55:49;;;;;;;12.60;10.23;;;;;;;31.78;53.33;100909.16;5024904;28;64943;-32
2021/04/21 04:58:21;;;;;;;12.30;10.07;;;;;;;31.58;52.83;100866.00;5024728;28;69811;-30
2021/04/21 05:00:51;;;;;;;;;;;;;;;31.56;51.48;100887.91;5028378;28;66028;-30
2021/04/21 05:03:26;;;;;;;12.32;8.55;;;;;;;31.58;51.73;100871.41;5017798;28;69160;-30
2021/04/21 05:05:58;;;;;;;12.13;8.45;;;;;;;31.59;52.13;100876.63;5024562;28;66245;-30
2021/04/21 05:08:51;;;;;;;9.30;7.82;;;;;;;31.51;50.33;100866.06;5016285;28;71049;-30
2021/04/21 05:11:23;;;;;;;8.15;7.32;;;;;;;31.51;50.51;100855.22;5017358;28;65989;-30
2021/04/21 05:13:54;;;;;;;13.60;8.18;;;;;;;31.44;50.40;100851.75;5021230;28;69956;-30
2021/04/21 05:16:26;;;;;;;9.20;7.30;;;;;;;31.38;49.58;100849.94;5022773;28;65848;-30
2021/04/21 05:19:32;;;;;;;11.00;6.57;;;;;;;31.35;48.91;100828.69;5021922;28;69944;-30
2021/04/21 05:22:23;;;;;;;8.43;6.88;;;;;;;31.39;48.52;100822.59;5023414;28;66635;-30
2021/04/21 05:25:23;;;;;;;13.68;6.00;;;;;;;31.32;48.80;100802.84;5023595;28;71431;-30
2021/04/21 05:28:12;;;;;;;6.38;5.88;;;;;;;31.40;49.03;100809.91;5021666;28;66024;-30
2021/04/21 05:31:16;;;;;;;6.57;5.78;;;;;;;31.36;48.48;100804.06;5035309;28;71541;-30
2021/04/21 05:34:19;;;;;;;11.45;5.90;;;;;;;31.34;47.68;100791.78;5024299;28;66024;-30
2021/04/21 05:36:58;;;;;;;9.45;5.55;;;;;;;31.36;47.27;100787.00;5020049;28;69874;-30
2021/04/21 05:40:02;;;;;;;7.10;4.95;;;;;;;31.35;48.91;100780.72;5018317;28;66880;-31
2021/04/21 05:43:08;;;;;;;22.95;5.80;;;;;;;31.38;48.47;100772.16;5023952;28;69856;-31
2021/04/21 05:46:06;;;;;;;12.85;5.65;;;;;;;31.43;47.45;100759.84;5025664;28;65737;-31
2021/04/21 05:49:02;;;;;;;17.30;5.80;;;;;;;31.34;47.33;100751.13;5038091;28;70267;-31
2021/04/21 05:52:13;;;;;;;8.20;5.07;;;;;;;31.31;46.63;100736.13;5026353;28;65939;-30
2021/04/21 05:55:04;;;;;;;12.60;4.78;;;;;;;31.38;47.33;100726.09;5029312;28;71054;-30
2021/04/21 05:58:25;;;;;;;9.85;4.30;;;;;;;31.28;46.20;100724.94;5029631;28;65907;-33
2021/04/21 06:01:15;;;;;;;13.70;4.75;;;;;;;31.36;46.58;100719.22;5016873;28;70333;-30
2021/04/21 06:03:57;;;;;;;16.35;4.25;;;;;;;31.45;46.34;100712.44;5021651;28;66907;-30
2021/04/21 06:06:29;;;;;;;4.13;3.83;;;;;;;31.45;46.62;100717.84;5025667;28;69730;-31
2021/04/21 06:09:08;;;;;;;10.10;4.07;;;;;;;31.46;46.46;100722.25;5032758;28;65714;-30
2021/04/21 06:11:38;;;;;;;5.03;3.60;;;;;;;31.49;46.23;100716.34;5019985;28;70210;-31
2021/04/21 06:14:08;;;;;;;6.07;3.72;;;;;;;31.51;45.86;100713.41;5017434;28;66349;-30
2021/04/21 06:16:38;;;;;;;10.80;3.72;;;;;;;31.57;45.54;100701.66;5018102;28;70002;-30
2021/04/21 06:19:09;;;;;;;3.90;3.60;;;;;;;31.56;45.44;100681.84;5015640;28;65895;-30
2021/04/21 06:21:41;;;;;;;8.27;3.70;;;;;;;31.49;44.97;100675.69;5025471;28;71424;-31
2021/04/21 06:24:29;;;;;;;6.65;3.45;;;;;;;31.51;44.64;100680.88;5020368;28;66105;-31
2021/04/21 06:27:12;;;;;;;10.85;3.25;;;;;;;31.49;44.65;100675.69;5034652;28;69862;-30
2021/04/21 06:29:42;;;;;;;3.97;3.45;;;;;;;31.56;44.92;100678.31;5024672;28;66302;-30
2021/04/21 06:32:15;;;;;;;3.80;3.40;;;;;;;31.53;44.88;100674.16;5022867;28;70019;-30
2021/04/21 06:34:45;;;;;;;4.95;3.47;;;;;;;31.56;45.04;100660.16;5020047;28;65965;-29
2021/04/21 06:37:17;;;;;;;8.13;3.22;;;;;;;31.54;44.79;100647.91;5020910;28;69014;-30
2021/04/21 06:39:47;;;;;;;9.88;3.20;;;;;;;31.48;44.59;100644.22;5021345;28;65564;-30
2021/04/21 06:42:18;;;;;;;3.70;3.30;;;;;;;31.55;44.43;100644.94;5018687;28;70062;-30
2021/04/21 06:44:51;;;;;;;6.28;3.53;;;;;;;31.38;43.79;100625.81;5027645;28;65467;-29
2021/04/21 06:47:27;;;;;;;7.35;2.75;;;;;;;31.45;43.46;100631.13;5022139;27;70901;-29
2021/04/21 06:50:06;;;;;;;6.47;3.38;;;;;;;31.40;43.63;100625.59;5024358;28;66552;-30
2021/04/21 06:52:42;;;;;;;3.63;3.33;;;;;;;31.42;43.61;100631.56;5022243;28;70434;-30
2021/04/21 06:55:16;;;;;;;3.53;3.22;;;;;;;31.43;43.62;100625.13;5022999;28;65951;-30
2021/04/21 06:57:52;;;;;;;3.45;3.15;;;;;;;31.40;42.97;100620.16;5021083;28;70467;-29
2021/04/21 07:00:28;;;;;;;11.35;3.25;;;;;;;31.37;43.62;100615.16;5019485;28;66105;-30
2021/04/21 07:02:58;;;;;;;3.47;3.00;;;;;;;31.42;43.76;100620.72;5022087;28;69783;-29
2021/04/21 07:05:36;;;;;;;6.72;3.38;;;;;;;31.34;45.32;100623.72;5020825;28;64986;-35
2021/04/21 07:08:12;;;;;;;8.88;3.90;;;;;;;31.42;45.18;100623.44;5023081;28;70405;-30
2021/04/21 07:10:50;;;;;;;6.85;3.42;;;;;;;31.38;44.00;100611.44;5024766;28;66151;-30
2021/04/21 07:13:24;;;;;;;4.78;3.60;;;;;;;31.36;44.60;100591.84;5023968;28;70546;-30
2021/04/21 07:16:04;;;;;;;15.73;4.03;;;;;;;31.44;44.46;100609.69;5028567;28;65967;-31
2021/04/21 07:18:38;;;;;;;8.65;3.90;;;;;;;31.44;44.21;100605.06;5023817;28;69881;-29
2021/04/21 07:21:09;;;;;;;5.38;3.25;;;;;;;31.42;43.88;100612.59;5021110;28;66807;-31
2021/04/21 07:23:44;;;;;;;6.68;3.80;;;;;;;31.41;44.27;100610.97;5023051;28;70176;-30
2021/04/21 07:26:18;;;;;;;18.23;4.13;;;;;;;31.59;46.65;100597.34;5020877;28;65987;-30
2021/04/21 07:28:47;;;;;;;23.00;4.95;;;;;;;31.88;48.22;100583.97;5018625;28;69861;-30
2021/04/21 07:31:18;;;;;;;18.65;5.13;;;;;;;31.96;49.43;100569.25;5024409;28;65224;-29
2021/04/21 07:33:49;;;;;;;10.85;5.78;;;;;;;32.19;51.55;100574.66;5019334;28;69184;-29
2021/04/21 07:36:24;;;;;;;8.65;6.07;;;;;;;32.33;53.59;100569.81;5018396;28;66462;-30
2021/04/21 07:39:05;;;;;;;8.93;5.75;;;;;;;32.38;54.16;100548.22;5028624;28;69284;-30
2021/04/21 07:41:50;;;;;;;14.85;6.28;;;;;;;32.49;54.36;100536.56;5025255;28;65407;-30
2021/04/21 07:44:51;;;;;;;18.92;6.10;;;;;;;32.67;54.58;100554.56;5030492;28;69329;-29
2021/04/21 07:47:26;;;;;;;30.52;7.07;;;;;;;32.72;54.31;100545.69;5018347;28;66096;-30
2021/04/21 07:50:01;;;;;;;12.27;6.60;;;;;;;32.83;54.48;100557.59;5023796;28;69970;-31
2021/04/21 07:52:36;;;;;;;16.60;6.78;;;;;;;32.83;54.88;100558.41;5018337;28;66514;-30
2021/04/21 07:55:07;;;;;;;20.25;6.38;;;;;;;32.92;54.90;100567.81;5030428;28;68929;-31
2021/04/21 07:57:39;;;;;;;14.17;5.73;;;;;;;32.98;55.40;100562.50;5026331;28;66246;-30
2021/04/21 08:00:22;;;;;;;18.52;6.60;;;;;;;33.02;55.17;100561.81;5022198;28;71049;-30
2021/04/21 08:02:52;;;;;;;59.75;8.30;;;;;;;33.06;55.45;100549.38;5015852;28;66736;-33
2021/04/21 08:05:22;;;;;;;48.55;7.90;;;;;;;33.10;55.29;100547.00;5028760;28;70911;-35
2021/04/21 08:08:03;;;;;;;21.45;7.25;;;;;;;33.07;55.47;100542.03;5026997;28;66139;-29
2021/04/21 08:10:39;;;;;;;17.13;7.65;;;;;;;33.17;55.17;100542.22;5028477;28;69953;-30
2021/04/21 08:13:14;;;;;;;21.38;7.50;;;;;;;33.14;55.50;100531.84;5020213;28;66223;-30
2021/04/21 08:15:44;;;;;;;16.60;9.00;;;;;;;33.15;55.32;100523.47;5029735;28;70003;-29
2021/04/21 08:18:16;;;;;;;14.55;8.52;;;;;;;33.16;55.39;100535.16;5020702;28;66323;-30
2021/04/21 08:20:53;;;;;;;18.98;9.38;;;;;;;33.19;55.87;100533.84;5000899;28;69880;-30
2021/04/21 08:23:32;;;;;;;16.95;9.57;;;;;;;33.23;55.57;100533.09;5024283;28;65299;-29
2021/04/21 08:26:05;;;;;;;11.10;7.80;;;;;;;33.28;55.79;100527.75;5028534;28;71400;-30
2021/04/21 08:28:35;;;;;;;18.55;8.75;;;;;;;33.24;55.58;100526.59;5036473;28;66310;-34
2021/04/21 08:31:06;;;;;;;24.95;10.15;;;;;;;33.29;55.52;100523.13;5022319;28;70340;-28
2021/04/21 08:33:35;;;;;;;30.70;9.23;;;;;;;33.26;55.56;100502.69;5025743;28;66605;-30
2021/04/21 08:36:05;;;;;;;15.68;8.93;;;;;;;33.31;55.27;100505.50;5021516;28;70261;-34
2021/04/21 08:38:34;;;;;;;22.52;8.88;;;;;;;33.30;55.59;100503.88;5017277;28;65149;-30
2021/04/21 08:41:06;;;;;;;15.77;9.20;;;;;;;33.20;56.29;100495.53;5023247;28;70109;-29
2021/04/21 08:43:36;;;;;;;20.67;8.40;;;;;;;33.25;56.36;100506.50;5030169;28;66164;-28
2021/04/21 08:46:06;;;;;;;14.40;8.40;;;;;;;33.27;55.96;100514.44;5025427;28;70536;-29
2021/04/21 08:48:37;;;;;;;12.80;8.32;;;;;;;33.30;56.27;100531.06;5022500;28;65578;-30
2021/04/21 08:51:08;;;;;;;16.88;8.35;;;;;;;33.36;55.83;100534.69;5014466;28;69835;-29
2021/04/21 08:53:40;;;;;;;20.85;8.15;;;;;;;33.31;55.81;100532.69;5028029;28;65358;-30
2021/04/21 08:56:13;;;;;;;18.60;9.57;;;;;;;33.35;55.58;100554.81;5028092;28;69254;-28
2021/04/21 08:58:47;;;;;;;14.75;8.38;;;;;;;33.31;55.88;100549.00;5014631;28;66711;-29
2021/04/21 09:01:19;;;;;;;12.65;7.53;;;;;;;33.31;55.91;100554.44;5021554;28;69870;-30
2021/04/21 09:03:50;;;;;;;14.73;8.80;;;;;;;33.34;56.44;100575.69;5025242;28;65187;-30
2021/04/21 09:06:23;;;;;;;14.75;10.52;;;;;;;33.35;56.07;100580.09;5023261;28;70230;-29
2021/04/21 09:08:55;;;;;;;19.33;9.85;;;;;;;33.38;56.38;100589.66;5023178;28;65244;-29
2021/04/21 09:11:25;;;;;;;16.30;10.25;;;;;;;33.35;55.90;100593.69;5021657;28;70498;-34
2021/04/21 09:13:54;;;;;;;11.85;10.63;;;;;;;33.41;55.97;100602.75;5020263;28;66061;-29
2021/04/21 09:16:27;;;;;;;18.35;10.80;;;;;;;33.34;55.90;100608.31;5026333;28;70247;-29
2021/04/21 09:18:57;;;;;;;26.33;10.40;;;;;;;33.34;56.34;100604.78;5037687;28;65268;-29
2021/04/21 09:21:32;;;;;;;18.02;10.70;;;;;;;33.37;56.58;100602.41;5026806;28;69085;-29
2021/04/21 09:24:02;;;;;;;23.08;10.60;;;;;;;33.41;56.74;100607.38;5021965;28;65778;-30
2021/04/21 09:26:36;;;;;;;18.58;10.38;;;;;;;33.43;57.34;100605.22;5021866;28;70154;-29
2021/04/21 09:29:06;;;;;;;15.63;9.57;;;;;;;33.38;57.65;100598.63;5019001;28;66489;-29
2021/04/21 09:31:37;;;;;;;18.10;9.80;;;;;;;33.42;57.49;100604.41;5020576;28;70302;-30
2021/04/21 09:34:15;;;;;;;13.60;9.18;;;;;;;33.34;57.96;100594.72;5022961;28;66836;-29
2021/04/21 09:36:49;;;;;;;15.10;10.35;;;;;;;33.42;57.62;100614.44;5025105;28;69125;-29
2021/04/21 09:39:27;;;;;;;18.48;12.68;;;;;;;33.46;57.80;100621.03;5026508;28;66368;-29
2021/04/21 09:42:01;;;;;;;39.15;14.52;;;;;;;33.43;57.96;100619.63;5026912;28;70182;-30
2021/04/21 09:44:31;;;;;;;53.42;16.67;;;;;;;33.41;58.46;100612.81;5016528;28;65360;-29
2021/04/21 09:47:12;;;;;;;45.80;15.73;;;;;;;33.33;57.94;100620.28;5016562;28;69143;-29
2021/04/21 09:49:43;;;;;;;37.17;14.88;;;;;;;33.42;57.81;100639.75;5016550;28;65698;-30
2021/04/21 09:52:13;;;;;;;24.92;13.90;;;;;;;33.42;58.33;100647.91;5026027;28;70043;-30
2021/04/21 09:54:47;;;;;;;33.55;13.35;;;;;;;33.37;58.50;100637.75;5018703;28;65023;-28
2021/04/21 09:57:27;;;;;;;26.08;13.05;;;;;;;33.38;59.20;100639.41;5018890;28;69865;-29
2021/04/21 10:00:17;;;;;;;21.75;12.77;;;;;;;33.26;60.67;100621.47;5028531;28;65939;-29
2021/04/21 10:02:47;;;;;;;19.83;12.48;;;;;;;33.33;59.53;100631.16;5022409;28;69214;-30
2021/04/21 10:05:26;;;;;;;34.70;11.77;;;;;;;33.38;59.15;100631.25;5024590;28;66348;-30
2021/04/21 10:08:22;;;;;;;26.90;11.05;;;;;;;33.29;59.49;100621.84;5017251;28;70085;-29
2021/04/21 10:11:01;;;;;;;43.13;13.65;;;;;;;33.28;58.24;100613.91;5032556;28;66587;-29
2021/04/21 10:13:53;;;;;;;25.75;13.73;;;;;;;33.29;58.43;100619.13;5027842;28;69782;-29
2021/04/21 10:16:23;;;;;;;44.57;13.20;;;;;;;33.30;59.03;100615.34;5022432;28;65841;-30
2021/04/21 10:18:54;;;;;;;27.85;12.80;;;;;;;33.36;59.25;100617.06;5021242;28;70719;-31
2021/04/21 10:21:27;;;;;;;31.58;15.60;;;;;;;33.36;59.49;100610.81;5017584;28;65446;-30
2021/04/21 10:23:57;;;;;;;23.27;13.18;;;;;;;33.34;60.10;100613.75;5029792;28;69796;-29
2021/04/21 10:26:27;;;;;;;35.05;13.80;;;;;;;33.29;60.83;100627.28;5015702;28;65309;-30
2021/04/21 10:28:58;;;;;;;34.13;14.00;;;;;;;33.32;60.73;100631.38;5023931;28;69781;-30
2021/04/21 10:31:28;;;;;;;30.88;14.90;;;;;;;33.40;60.62;100643.78;5022473;28;65927;-30
2021/04/21 10:34:01;;;;;;;28.08;15.75;;;;;;;33.43;60.57;100640.56;5024346;28;69969;-30
2021/04/21 10:36:31;;;;;;;31.73;15.30;;;;;;;33.42;60.33;100641.63;5015824;28;65487;-30
2021/04/21 10:39:00;;;;;;;34.15;16.67;;;;;;;33.49;60.65;100645.03;5021503;28;70346;-31
2021/04/21 10:41:44;;;;;;;30.25;15.38;;;;;;;33.46;60.43;100648.22;5033859;28;66561;-30
2021/04/21 10:44:32;;;;;;;24.60;14.98;;;;;;;33.47;60.45;100666.22;5027864;28;69093;-31
2021/04/21 10:47:07;;;;;;;30.98;14.88;;;;;;;33.54;60.03;100672.34;5021167;28;66203;-30
2021/04/21 10:50:00;;;;;;;23.95;14.13;;;;;;;33.46;60.52;100681.72;5020982;28;70688;-30
2021/04/21 10:52:30;;;;;;;30.95;15.40;;;;;;;33.50;59.95;100676.59;5020730;28;66964;-31
2021/04/21 10:55:20;;;;;;;26.42;15.02;;;;;;;33.51;60.10;100678.25;5015110;28;69133;-30
2021/04/21 10:57:58;;;;;;;24.38;14.18;;;;;;;33.50;60.02;100676.59;5019185;28;65838;-30
2021/04/21 11:00:37;;;;;;;26.13;14.98;;;;;;;33.52;60.12;100674.47;5025832;28;69141;-30
2021/04/21 11:03:10;;;;;;;25.80;15.02;;;;;;;33.50;59.79;100676.59;5019930;28;66060;-30
2021/04/21 11:05:46;;;;;;;21.85;14.57;;;;;;;33.48;59.75;100685.00;5025424;28;69834;-29
2021/04/21 11:08:26;;;;;;;31.92;14.93;;;;;;;33.44;59.95;100683.03;5024545;28;65982;-30
2021/04/21 11:11:02;;;;;;;15.80;14.25;;;;;;;33.50;59.96;100695.63;5030616;28;69840;-31
2021/04/21 11:13:34;;;;;;;22.60;15.02;;;;;;;33.52;59.54;100707.09;5022421;28;66038;-30
2021/04/21 11:16:34;;;;;;;22.63;14.80;;;;;;;33.38;60.14;100712.00;5021400;28;69147;-29
2021/04/21 11:19:20;;;;;;;25.90;14.55;;;;;;;33.39;60.06;100713.66;5025270;28;66348;-29
2021/04/21 11:22:15;;;;;;;29.52;14.30;;;;;;;33.44;59.92;100732.78;5020998;28;70183;-30
2021/04/21 11:25:24;;;;;;;26.92;14.82;;;;;;;33.45;59.75;100728.16;5030360;28;64988;-29
2021/04/21 11:27:55;;;;;;;17.90;14.93;;;;;;;33.48;59.66;100735.84;5023050;28;69923;-30
2021/04/21 11:30:34;;;;;;;;;;;;;;;33.42;59.79;100744.97;5017872;28;66692;-30
2021/04/21 11:33:04;;;;;;;20.50;12.48;;;;;;;33.47;59.68;100750.50;5021200;28;69956;-30
2021/04/21 11:35:36;;;;;;;22.03;14.17;;;;;;;33.48;59.58;100765.75;5018934;28;65733;-30
2021/04/21 11:38:05;;;;;;;19.77;13.60;;;;;;;33.42;59.71;100758.56;5036380;28;70286;-30
2021/04/21 11:40:36;;;;;;;19.92;13.88;;;;;;;33.42;59.53;100761.28;5027189;28;66522;-30
2021/04/21 11:43:38;;;;;;;20.65;12.68;;;;;;;33.30;59.60;100762.13;5033543;28;69929;-30
2021/04/21 11:46:08;;;;;;;20.13;13.88;;;;;;;33.35;59.57;100756.81;5024232;28;66142;-30
2021/04/21 11:48:39;;;;;;;15.10;13.35;;;;;;;33.37;59.80;100749.22;5036554;28;69770;-30
2021/04/21 11:51:17;;;;;;;21.63;12.82;;;;;;;33.36;59.70;100758.44;5024244;28;66009;-30
2021/04/21 11:53:46;;;;;;;15.23;12.50;;;;;;;33.30;59.84;100758.59;5034966;28;70318;-30
2021/04/21 11:56:16;;;;;;;23.08;13.38;;;;;;;33.33;59.70;100758.13;5026837;28;66041;-30
2021/04/21 11:58:50;;;;;;;25.75;12.93;;;;;;;33.19;59.89;100749.41;5021372;28;69905;-30
2021/04/21 12:01:23;;;;;;;19.98;13.82;;;;;;;33.32;59.67;100768.16;5019458;28;66498;-29
2021/04/21 12:03:53;;;;;;;22.05;13.13;;;;;;;33.31;59.70;100771.94;5031931;28;69132;-31
2021/04/21 12:06:26;;;;;;;19.60;13.43;;;;;;;33.30;59.74;100769.47;5021664;28;65629;-30